sensor_id;sensor_type;location;lat;lon;timestamp;pressure;altitude;pressure_sealevel;temperature;humidity
43486;BME280;30447;48.742;8.972;2023-08-31T00:01:32;96266.94;;;13.59;100.00
43486;BME280;30447;48.742;8.972;2023-08-31T00:04:00;96261.66;;;13.64;100.00
43486;BME280;30447;48.742;8.972;2023-08-31T00:06:26;96266.09;;;13.60;100.00
43486;BME280;30447;48.742;8.972;2023-08-31T00:08:53;96271.19;;;13.64;100.00
43486;BME280;30447;48.742;8.972;2023-08-31T00:11:20;96270.34;;;13.63;100.00
43486;BME280;30447;48.742;8.972;2023-08-31T00:13:47;96279.84;;;13.66;100.00
43486;BME280;30447;48.742;8.972;2023-08-31T00:16:13;96290.31;;;13.62;100.00
43486;BME280;30447;48.742;8.972;2023-08-31T00:18:40;96284.22;;;13.64;100.00
43486;BME280;30447;48.742;8.972;2023-08-31T00:21:07;96287.78;;;13.58;100.00
43486;BME280;30447;48.742;8.972;2023-08-31T00:23:34;96285.19;;;13.58;100.00
43486;BME280;30447;48.742;8.972;2023-08-31T00:26:03;96292.81;;;13.26;100.00
43486;BME280;30447;48.742;8.972;2023-08-31T00:28:29;96293.59;;;13.30;100.00
43486;BME280;30447;48.742;8.972;2023-08-31T00:30:56;96287.31;;;13.39;100.00
43486;BME280;30447;48.742;8.972;2023-08-31T00:33:25;96303.66;;;13.45;100.00
43486;BME280;30447;48.742;8.972;2023-08-31T00:35:52;96300.16;;;13.49;100.00
43486;BME280;30447;48.742;8.972;2023-08-31T00:38:19;96301.84;;;13.51;100.00
43486;BME280;30447;48.742;8.972;2023-08-31T00:40:45;96299.28;;;13.49;100.00
43486;BME280;30447;48.742;8.972;2023-08-31T00:43:15;96297.69;;;13.42;100.00
43486;BME280;30447;48.742;8.972;2023-08-31T00:45:43;96294.19;;;13.43;100.00
43486;BME280;30447;48.742;8.972;2023-08-31T00:48:12;96289.13;;;13.36;100.00
43486;BME280;30447;48.742;8.972;2023-08-31T00:50:46;96280.59;;;13.28;100.00
43486;BME280;30447;48.742;8.972;2023-08-31T00:53:15;96280.72;;;13.23;100.00
43486;BME280;30447;48.742;8.972;2023-08-31T00:55:46;96283.66;;;13.06;100.00
43486;BME280;30447;48.742;8.972;2023-08-31T00:58:13;96285.56;;;12.98;100.00
43486;BME280;30447;48.742;8.972;2023-08-31T01:00:50;96281.28;;;12.95;100.00
43486;BME280;30447;48.742;8.972;2023-08-31T01:03:51;96279.59;;;12.93;100.00
43486;BME280;30447;48.742;8.972;2023-08-31T01:06:41;96288.41;;;12.86;100.00
43486;BME280;30447;48.742;8.972;2023-08-31T01:09:33;96284.62;;;13.02;100.00
43486;BME280;30447;48.742;8.972;2023-08-31T01:12:12;96294.63;;;12.77;100.00
43486;BME280;30447;48.742;8.972;2023-08-31T01:14:53;96286.31;;;12.59;100.00
43486;BME280;30447;48.742;8.972;2023-08-31T01:17:24;96285.41;;;12.60;100.00
43486;BME280;30447;48.742;8.972;2023-08-31T01:19:57;96294.31;;;12.47;100.00
43486;BME280;30447;48.742;8.972;2023-08-31T01:22:50;96301.44;;;12.37;100.00
43486;BME280;30447;48.742;8.972;2023-08-31T01:25:23;96301.62;;;12.24;100.00
43486;BME280;30447;48.742;8.972;2023-08-31T01:27:51;96306.75;;;12.29;100.00
43486;BME280;30447;48.742;8.972;2023-08-31T01:30:18;96310.38;;;12.20;100.00
43486;BME280;30447;48.742;8.972;2023-08-31T01:32:45;96313.09;;;12.12;100.00
43486;BME280;30447;48.742;8.972;2023-08-31T01:35:16;96308.75;;;12.11;100.00
43486;BME280;30447;48.742;8.972;2023-08-31T01:37:55;96314.72;;;12.16;100.00
43486;BME280;30447;48.742;8.972;2023-08-31T01:40:43;96316.62;;;12.08;100.00
43486;BME280;30447;48.742;8.972;2023-08-31T01:43:17;96316.53;;;12.13;100.00
43486;BME280;30447;48.742;8.972;2023-08-31T01:45:46;96323.50;;;12.11;100.00
43486;BME280;30447;48.742;8.972;2023-08-31T01:48:14;96329.53;;;12.13;100.00
43486;BME280;30447;48.742;8.972;2023-08-31T01:50:41;96320.13;;;12.06;100.00
43486;BME280;30447;48.742;8.972;2023-08-31T01:53:08;96320.81;;;12.17;100.00
43486;BME280;30447;48.742;8.972;2023-08-31T01:55:35;96330.28;;;12.20;100.00
43486;BME280;30447;48.742;8.972;2023-08-31T01:58:01;96326.78;;;12.21;100.00
43486;BME280;30447;48.742;8.972;2023-08-31T02:00:28;96325.84;;;12.26;100.00
43486;BME280;30447;48.742;8.972;2023-08-31T02:02:55;96320.53;;;12.33;100.00
43486;BME280;30447;48.742;8.972;2023-08-31T02:05:21;96326.66;;;12.28;100.00
43486;BME280;30447;48.742;8.972;2023-08-31T02:07:48;96330.97;;;12.29;100.00
43486;BME280;30447;48.742;8.972;2023-08-31T02:10:15;96319.75;;;12.29;100.00
43486;BME280;30447;48.742;8.972;2023-08-31T02:12:41;96327.59;;;12.24;100.00
43486;BME280;30447;48.742;8.972;2023-08-31T02:15:08;96322.50;;;12.20;100.00
43486;BME280;30447;48.742;8.972;2023-08-31T02:17:36;96319.91;;;12.18;100.00
43486;BME280;30447;48.742;8.972;2023-08-31T02:20:04;96314.53;;;12.30;100.00
43486;BME280;30447;48.742;8.972;2023-08-31T02:22:34;96318.09;;;12.23;100.00
43486;BME280;30447;48.742;8.972;2023-08-31T02:25:04;96322.34;;;12.29;100.00
43486;BME280;30447;48.742;8.972;2023-08-31T02:27:31;96326.63;;;12.32;100.00
43486;BME280;30447;48.742;8.972;2023-08-31T02:29:58;96324.00;;;12.33;100.00
43486;BME280;30447;48.742;8.972;2023-08-31T02:32:24;96331.69;;;12.39;100.00
43486;BME280;30447;48.742;8.972;2023-08-31T02:34:51;96334.94;;;12.52;100.00
43486;BME280;30447;48.742;8.972;2023-08-31T02:37:18;96334.16;;;12.47;100.00
43486;BME280;30447;48.742;8.972;2023-08-31T02:39:44;96340.16;;;12.49;100.00
43486;BME280;30447;48.742;8.972;2023-08-31T02:42:11;96343.81;;;12.39;100.00
43486;BME280;30447;48.742;8.972;2023-08-31T02:44:37;96350.37;;;12.60;100.00
43486;BME280;30447;48.742;8.972;2023-08-31T02:47:04;96343.47;;;12.59;100.00
43486;BME280;30447;48.742;8.972;2023-08-31T02:49:31;96348.84;;;12.50;100.00
43486;BME280;30447;48.742;8.972;2023-08-31T02:51:57;96346.38;;;12.40;100.00
43486;BME280;30447;48.742;8.972;2023-08-31T02:54:24;96344.75;;;12.35;100.00
43486;BME280;30447;48.742;8.972;2023-08-31T02:56:50;96358.69;;;12.30;100.00
43486;BME280;30447;48.742;8.972;2023-08-31T02:59:18;96349.34;;;12.19;100.00
43486;BME280;30447;48.742;8.972;2023-08-31T03:01:44;96343.13;;;12.27;100.00
43486;BME280;30447;48.742;8.972;2023-08-31T03:04:12;96347.31;;;12.36;100.00
43486;BME280;30447;48.742;8.972;2023-08-31T03:06:39;96357.53;;;12.49;100.00
43486;BME280;30447;48.742;8.972;2023-08-31T03:09:05;96354.03;;;12.50;100.00
43486;BME280;30447;48.742;8.972;2023-08-31T03:11:32;96361.31;;;12.29;100.00
43486;BME280;30447;48.742;8.972;2023-08-31T03:13:59;96361.47;;;12.18;100.00
43486;BME280;30447;48.742;8.972;2023-08-31T03:16:25;96355.44;;;12.16;100.00
43486;BME280;30447;48.742;8.972;2023-08-31T03:18:52;96359.00;;;12.09;100.00
43486;BME280;30447;48.742;8.972;2023-08-31T03:21:18;96358.09;;;12.11;100.00
43486;BME280;30447;48.742;8.972;2023-08-31T03:23:46;96356.22;;;12.23;100.00
43486;BME280;30447;48.742;8.972;2023-08-31T03:26:12;96351.84;;;12.25;100.00
43486;BME280;30447;48.742;8.972;2023-08-31T03:28:39;96350.16;;;12.21;100.00
43486;BME280;30447;48.742;8.972;2023-08-31T03:31:07;96347.63;;;12.18;100.00
43486;BME280;30447;48.742;8.972;2023-08-31T03:33:33;96351.06;;;12.18;100.00
43486;BME280;30447;48.742;8.972;2023-08-31T03:36:01;96346.81;;;12.14;100.00
43486;BME280;30447;48.742;8.972;2023-08-31T03:38:31;96354.69;;;12.08;100.00
43486;BME280;30447;48.742;8.972;2023-08-31T03:40:58;96359.94;;;12.04;100.00
43486;BME280;30447;48.742;8.972;2023-08-31T03:43:24;96364.03;;;12.20;100.00
43486;BME280;30447;48.742;8.972;2023-08-31T03:45:55;96366.06;;;11.97;100.00
43486;BME280;30447;48.742;8.972;2023-08-31T03:48:24;96361.59;;;12.09;100.00
43486;BME280;30447;48.742;8.972;2023-08-31T03:50:55;96359.00;;;12.10;100.00
43486;BME280;30447;48.742;8.972;2023-08-31T03:53:22;96372.06;;;12.02;100.00
43486;BME280;30447;48.742;8.972;2023-08-31T03:55:49;96378.09;;;12.04;100.00
43486;BME280;30447;48.742;8.972;2023-08-31T03:58:16;96381.31;;;12.24;100.00
43486;BME280;30447;48.742;8.972;2023-08-31T04:00:43;96384.94;;;12.12;100.00
43486;BME280;30447;48.742;8.972;2023-08-31T04:03:09;96382.34;;;12.12;100.00
43486;BME280;30447;48.742;8.972;2023-08-31T04:05:36;96378.06;;;12.08;100.00
43486;BME280;30447;48.742;8.972;2023-08-31T04:08:03;96383.31;;;12.04;100.00
43486;BME280;30447;48.742;8.972;2023-08-31T04:10:30;96372.94;;;12.03;100.00
43486;BME280;30447;48.742;8.972;2023-08-31T04:12:58;96381.66;;;11.97;100.00
43486;BME280;30447;48.742;8.972;2023-08-31T04:15:25;96385.03;;;12.06;100.00
43486;BME280;30447;48.742;8.972;2023-08-31T04:17:51;96384.94;;;12.13;100.00
43486;BME280;30447;48.742;8.972;2023-08-31T04:20:18;96384.62;;;12.32;100.00
43486;BME280;30447;48.742;8.972;2023-08-31T04:22:45;96390.66;;;12.34;100.00
43486;BME280;30447;48.742;8.972;2023-08-31T04:25:11;96384.69;;;12.29;100.00
43486;BME280;30447;48.742;8.972;2023-08-31T04:27:38;96392.53;;;12.24;100.00
43486;BME280;30447;48.742;8.972;2023-08-31T04:30:06;96383.91;;;12.24;100.00
43486;BME280;30447;48.742;8.972;2023-08-31T04:32:33;96386.28;;;12.38;100.00
43486;BME280;30447;48.742;8.972;2023-08-31T04:35:03;96391.56;;;12.33;100.00
43486;BME280;30447;48.742;8.972;2023-08-31T04:37:32;96392.41;;;12.34;100.00
43486;BME280;30447;48.742;8.972;2023-08-31T04:39:59;96398.50;;;12.31;100.00
43486;BME280;30447;48.742;8.972;2023-08-31T04:42:26;96396.53;;;12.46;100.00
43486;BME280;30447;48.742;8.972;2023-08-31T04:44:54;96393.19;;;12.39;100.00
43486;BME280;30447;48.742;8.972;2023-08-31T04:47:20;96396.59;;;12.42;100.00
43486;BME280;30447;48.742;8.972;2023-08-31T04:49:47;96399.53;;;12.19;100.00
43486;BME280;30447;48.742;8.972;2023-08-31T04:52:14;96407.06;;;12.38;100.00
43486;BME280;30447;48.742;8.972;2023-08-31T04:54:40;96394.09;;;12.36;100.00
43486;BME280;30447;48.742;8.972;2023-08-31T04:57:07;96399.59;;;12.18;100.00
43486;BME280;30447;48.742;8.972;2023-08-31T04:59:34;96407.38;;;12.18;100.00
43486;BME280;30447;48.742;8.972;2023-08-31T05:02:00;96413.50;;;12.13;100.00
43486;BME280;30447;48.742;8.972;2023-08-31T05:04:27;96421.16;;;12.21;100.00
43486;BME280;30447;48.742;8.972;2023-08-31T05:06:55;96420.31;;;12.21;100.00
43486;BME280;30447;48.742;8.972;2023-08-31T05:09:23;96420.13;;;12.33;100.00
43486;BME280;30447;48.742;8.972;2023-08-31T05:11:50;96417.56;;;12.32;100.00
43486;BME280;30447;48.742;8.972;2023-08-31T05:14:17;96421.75;;;12.39;100.00
43486;BME280;30447;48.742;8.972;2023-08-31T05:16:44;96420.88;;;12.40;100.00
43486;BME280;30447;48.742;8.972;2023-08-31T05:19:11;96421.69;;;12.43;100.00
43486;BME280;30447;48.742;8.972;2023-08-31T05:21:37;96425.87;;;12.52;100.00
43486;BME280;30447;48.742;8.972;2023-08-31T05:24:05;96431.88;;;12.56;100.00
43486;BME280;30447;48.742;8.972;2023-08-31T05:26:31;96441.13;;;12.74;100.00
43486;BME280;30447;48.742;8.972;2023-08-31T05:28:58;96437.88;;;12.60;100.00
43486;BME280;30447;48.742;8.972;2023-08-31T05:31:25;96446.56;;;12.59;100.00
43486;BME280;30447;48.742;8.972;2023-08-31T05:33:51;96442.00;;;12.75;100.00
43486;BME280;30447;48.742;8.972;2023-08-31T05:36:18;96448.34;;;12.56;100.00
43486;BME280;30447;48.742;8.972;2023-08-31T05:38:45;96445.81;;;12.52;100.00
43486;BME280;30447;48.742;8.972;2023-08-31T05:41:11;96456.25;;;12.49;100.00
43486;BME280;30447;48.742;8.972;2023-08-31T05:43:38;96455.41;;;12.47;100.00
43486;BME280;30447;48.742;8.972;2023-08-31T05:46:08;96455.25;;;12.59;100.00
43486;BME280;30447;48.742;8.972;2023-08-31T05:48:35;96460.34;;;12.65;100.00
43486;BME280;30447;48.742;8.972;2023-08-31T05:51:02;96455.22;;;12.61;100.00
43486;BME280;30447;48.742;8.972;2023-08-31T05:53:32;96461.19;;;12.66;100.00
43486;BME280;30447;48.742;8.972;2023-08-31T05:56:00;96460.09;;;12.79;100.00
43486;BME280;30447;48.742;8.972;2023-08-31T05:58:34;96464.37;;;12.82;100.00
43486;BME280;30447;48.742;8.972;2023-08-31T06:01:04;96461.78;;;12.82;100.00
43486;BME280;30447;48.742;8.972;2023-08-31T06:03:31;96471.34;;;12.81;100.00
43486;BME280;30447;48.742;8.972;2023-08-31T06:05:59;96464.50;;;12.74;100.00
43486;BME280;30447;48.742;8.972;2023-08-31T06:08:26;96473.97;;;12.80;100.00
43486;BME280;30447;48.742;8.972;2023-08-31T06:10:53;96469.66;;;12.79;100.00
43486;BME280;30447;48.742;8.972;2023-08-31T06:13:20;96477.25;;;12.90;100.00
43486;BME280;30447;48.742;8.972;2023-08-31T06:15:46;96477.06;;;13.02;100.00
43486;BME280;30447;48.742;8.972;2023-08-31T06:18:13;96475.16;;;13.12;100.00
43486;BME280;30447;48.742;8.972;2023-08-31T06:20:40;96476.91;;;13.12;100.00
43486;BME280;30447;48.742;8.972;2023-08-31T06:23:08;96476.94;;;13.10;100.00
43486;BME280;30447;48.742;8.972;2023-08-31T06:25:36;96478.38;;;13.25;100.00
43486;BME280;30447;48.742;8.972;2023-08-31T06:28:03;96471.47;;;13.24;100.00
43486;BME280;30447;48.742;8.972;2023-08-31T06:30:31;96470.50;;;13.30;100.00
43486;BME280;30447;48.742;8.972;2023-08-31T06:32:58;96466.97;;;13.34;100.00
43486;BME280;30447;48.742;8.972;2023-08-31T06:35:24;96476.28;;;13.46;100.00
43486;BME280;30447;48.742;8.972;2023-08-31T06:37:51;96476.28;;;13.47;100.00
43486;BME280;30447;48.742;8.972;2023-08-31T06:40:18;96486.38;;;13.65;100.00
43486;BME280;30447;48.742;8.972;2023-08-31T06:42:44;96496.06;;;14.00;100.00
43486;BME280;30447;48.742;8.972;2023-08-31T06:45:11;96500.47;;;13.98;100.00
43486;BME280;30447;48.742;8.972;2023-08-31T06:47:38;96502.56;;;13.79;100.00
43486;BME280;30447;48.742;8.972;2023-08-31T06:50:05;96501.97;;;13.65;100.00
43486;BME280;30447;48.742;8.972;2023-08-31T06:52:32;96507.28;;;13.60;100.00
43486;BME280;30447;48.742;8.972;2023-08-31T06:55:00;96508.09;;;13.62;100.00
43486;BME280;30447;48.742;8.972;2023-08-31T06:57:27;96504.63;;;13.63;100.00
43486;BME280;30447;48.742;8.972;2023-08-31T06:59:54;96507.28;;;13.61;100.00
43486;BME280;30447;48.742;8.972;2023-08-31T07:02:20;96507.75;;;13.81;100.00
43486;BME280;30447;48.742;8.972;2023-08-31T07:04:48;96512.56;;;13.55;100.00
43486;BME280;30447;48.742;8.972;2023-08-31T07:07:15;96511.69;;;13.56;100.00
43486;BME280;30447;48.742;8.972;2023-08-31T07:09:42;96510.63;;;13.68;100.00
43486;BME280;30447;48.742;8.972;2023-08-31T07:12:10;96515.81;;;13.68;100.00
43486;BME280;30447;48.742;8.972;2023-08-31T07:14:37;96514.91;;;13.71;100.00
43486;BME280;30447;48.742;8.972;2023-08-31T07:17:04;96512.00;;;13.86;100.00
43486;BME280;30447;48.742;8.972;2023-08-31T07:19:31;96521.22;;;14.01;100.00
43486;BME280;30447;48.742;8.972;2023-08-31T07:22:01;96516.56;;;14.18;100.00
43486;BME280;30447;48.742;8.972;2023-08-31T07:24:30;96527.00;;;14.18;100.00
43486;BME280;30447;48.742;8.972;2023-08-31T07:26:57;96525.09;;;14.26;100.00
43486;BME280;30447;48.742;8.972;2023-08-31T07:29:23;96520.41;;;14.40;100.00
43486;BME280;30447;48.742;8.972;2023-08-31T07:31:51;96516.81;;;14.46;98.81
43486;BME280;30447;48.742;8.972;2023-08-31T07:34:17;96526.44;;;14.44;98.62
43486;BME280;30447;48.742;8.972;2023-08-31T07:36:44;96527.84;;;14.58;99.37
43486;BME280;30447;48.742;8.972;2023-08-31T07:39:11;96531.22;;;14.63;98.30
43486;BME280;30447;48.742;8.972;2023-08-31T07:41:37;96529.88;;;14.45;98.62
43486;BME280;30447;48.742;8.972;2023-08-31T07:44:05;96532.84;;;14.67;98.47
43486;BME280;30447;48.742;8.972;2023-08-31T07:46:32;96537.06;;;14.74;96.35
43486;BME280;30447;48.742;8.972;2023-08-31T07:48:59;96531.84;;;14.74;97.03
43486;BME280;30447;48.742;8.972;2023-08-31T07:51:25;96541.66;;;15.01;96.54
43486;BME280;30447;48.742;8.972;2023-08-31T07:53:52;96535.22;;;15.16;95.81
43486;BME280;30447;48.742;8.972;2023-08-31T07:56:18;96534.09;;;15.26;92.94
43486;BME280;30447;48.742;8.972;2023-08-31T07:58:45;96538.75;;;15.15;89.42
43486;BME280;30447;48.742;8.972;2023-08-31T08:01:12;96540.41;;;15.17;87.71
43486;BME280;30447;48.742;8.972;2023-08-31T08:03:38;96536.50;;;15.34;88.46
43486;BME280;30447;48.742;8.972;2023-08-31T08:06:05;96536.56;;;15.31;83.45
43486;BME280;30447;48.742;8.972;2023-08-31T08:08:32;96536.97;;;15.50;83.52
43486;BME280;30447;48.742;8.972;2023-08-31T08:10:58;96544.50;;;15.61;83.84
43486;BME280;30447;48.742;8.972;2023-08-31T08:13:26;96548.50;;;15.74;81.55
43486;BME280;30447;48.742;8.972;2023-08-31T08:15:52;96538.81;;;15.80;80.46
43486;BME280;30447;48.742;8.972;2023-08-31T08:18:19;96544.91;;;15.80;80.21
43486;BME280;30447;48.742;8.972;2023-08-31T08:20:52;96556.59;;;16.00;78.38
43486;BME280;30447;48.742;8.972;2023-08-31T08:23:19;96550.91;;;15.82;78.82
43486;BME280;30447;48.742;8.972;2023-08-31T08:25:48;96561.84;;;15.98;80.15
43486;BME280;30447;48.742;8.972;2023-08-31T08:28:14;96554.38;;;15.84;78.47
43486;BME280;30447;48.742;8.972;2023-08-31T08:30:41;96545.66;;;15.84;77.05
43486;BME280;30447;48.742;8.972;2023-08-31T08:33:08;96556.41;;;16.06;77.46
43486;BME280;30447;48.742;8.972;2023-08-31T08:35:37;96567.25;;;15.91;78.22
43486;BME280;30447;48.742;8.972;2023-08-31T08:38:04;96561.81;;;15.65;78.29
43486;BME280;30447;48.742;8.972;2023-08-31T08:40:31;96556.97;;;15.84;78.30
43486;BME280;30447;48.742;8.972;2023-08-31T08:43:01;96560.81;;;15.71;77.45
43486;BME280;30447;48.742;8.972;2023-08-31T08:45:36;96561.59;;;15.73;78.28
43486;BME280;30447;48.742;8.972;2023-08-31T08:48:06;96560.56;;;15.80;79.39
43486;BME280;30447;48.742;8.972;2023-08-31T08:50:35;96562.28;;;15.81;79.26
43486;BME280;30447;48.742;8.972;2023-08-31T08:53:03;96568.31;;;15.83;78.83
43486;BME280;30447;48.742;8.972;2023-08-31T08:55:32;96568.97;;;15.92;78.49
43486;BME280;30447;48.742;8.972;2023-08-31T08:58:00;96566.84;;;16.06;76.03
43486;BME280;30447;48.742;8.972;2023-08-31T09:00:27;96572.53;;;15.87;76.48
43486;BME280;30447;48.742;8.972;2023-08-31T09:02:54;96577.97;;;16.15;76.74
43486;BME280;30447;48.742;8.972;2023-08-31T09:05:22;96572.72;;;16.15;73.55
43486;BME280;30447;48.742;8.972;2023-08-31T09:08:02;96575.06;;;16.24;73.33
43486;BME280;30447;48.742;8.972;2023-08-31T09:10:45;96568.31;;;16.17;71.23
43486;BME280;30447;48.742;8.972;2023-08-31T09:13:14;96579.31;;;16.58;70.05
43486;BME280;30447;48.742;8.972;2023-08-31T09:15:46;96575.47;;;16.70;68.63
43486;BME280;30447;48.742;8.972;2023-08-31T09:18:16;96588.25;;;16.51;69.90
43486;BME280;30447;48.742;8.972;2023-08-31T09:20:49;96581.69;;;16.66;69.27
43486;BME280;30447;48.742;8.972;2023-08-31T09:23:17;96578.03;;;16.72;68.36
43486;BME280;30447;48.742;8.972;2023-08-31T09:25:46;96575.78;;;16.89;65.72
43486;BME280;30447;48.742;8.972;2023-08-31T09:28:23;96592.31;;;16.61;66.50
43486;BME280;30447;48.742;8.972;2023-08-31T09:31:04;96584.22;;;16.69;66.85
43486;BME280;30447;48.742;8.972;2023-08-31T09:33:35;96574.19;;;16.84;64.83
43486;BME280;30447;48.742;8.972;2023-08-31T09:36:03;96582.56;;;16.95;66.70
43486;BME280;30447;48.742;8.972;2023-08-31T09:38:32;96586.16;;;16.62;67.02
43486;BME280;30447;48.742;8.972;2023-08-31T09:41:05;96587.37;;;16.50;66.30
43486;BME280;30447;48.742;8.972;2023-08-31T09:43:32;96591.38;;;16.62;66.83
43486;BME280;30447;48.742;8.972;2023-08-31T09:46:00;96592.81;;;16.44;65.22
43486;BME280;30447;48.742;8.972;2023-08-31T09:48:29;96587.47;;;16.77;66.48
43486;BME280;30447;48.742;8.972;2023-08-31T09:50:57;96586.75;;;17.01;65.70
43486;BME280;30447;48.742;8.972;2023-08-31T09:53:24;96587.94;;;16.90;65.61
43486;BME280;30447;48.742;8.972;2023-08-31T09:55:51;96587.50;;;16.76;65.38
43486;BME280;30447;48.742;8.972;2023-08-31T09:58:20;96591.03;;;17.05;65.22
43486;BME280;30447;48.742;8.972;2023-08-31T10:00:50;96588.19;;;17.11;65.95
43486;BME280;30447;48.742;8.972;2023-08-31T10:03:20;96582.47;;;17.27;66.33
43486;BME280;30447;48.742;8.972;2023-08-31T10:05:49;96590.41;;;17.24;66.65
43486;BME280;30447;48.742;8.972;2023-08-31T10:08:17;96596.22;;;17.34;66.01
43486;BME280;30447;48.742;8.972;2023-08-31T10:10:45;96599.19;;;17.50;66.53
43486;BME280;30447;48.742;8.972;2023-08-31T10:13:13;96597.47;;;17.49;67.05
43486;BME280;30447;48.742;8.972;2023-08-31T10:15:43;96597.25;;;17.28;66.44
43486;BME280;30447;48.742;8.972;2023-08-31T10:18:10;96599.72;;;17.05;66.91
43486;BME280;30447;48.742;8.972;2023-08-31T10:20:42;96613.44;;;16.84;67.59
43486;BME280;30447;48.742;8.972;2023-08-31T10:23:10;96601.41;;;17.07;66.67
43486;BME280;30447;48.742;8.972;2023-08-31T10:28:19;96601.78;;;16.94;66.96
43486;BME280;30447;48.742;8.972;2023-08-31T10:31:03;96597.84;;;17.09;67.54
43486;BME280;30447;48.742;8.972;2023-08-31T10:33:39;96598.78;;;17.35;68.30
43486;BME280;30447;48.742;8.972;2023-08-31T10:36:16;96598.81;;;17.61;66.16
43486;BME280;30447;48.742;8.972;2023-08-31T10:39:15;96594.06;;;17.72;66.45
43486;BME280;30447;48.742;8.972;2023-08-31T10:41:56;96605.19;;;18.04;65.72
43486;BME280;30447;48.742;8.972;2023-08-31T10:44:30;96603.00;;;17.66;66.25
43486;BME280;30447;48.742;8.972;2023-08-31T10:47:03;96599.63;;;17.63;65.90
43486;BME280;30447;48.742;8.972;2023-08-31T10:49:30;96591.03;;;17.84;65.66
43486;BME280;30447;48.742;8.972;2023-08-31T10:52:16;96595.88;;;17.70;67.41
43486;BME280;30447;48.742;8.972;2023-08-31T10:54:46;96600.22;;;17.96;65.80
43486;BME280;30447;48.742;8.972;2023-08-31T10:57:14;96607.41;;;17.91;65.55
43486;BME280;30447;48.742;8.972;2023-08-31T10:59:52;96590.66;;;17.95;67.23
43486;BME280;30447;48.742;8.972;2023-08-31T11:02:43;96594.66;;;18.07;66.30
43486;BME280;30447;48.742;8.972;2023-08-31T11:05:14;96592.50;;;18.19;65.98
43486;BME280;30447;48.742;8.972;2023-08-31T11:07:48;96587.22;;;17.93;66.48
43486;BME280;30447;48.742;8.972;2023-08-31T11:10:23;96588.84;;;17.97;66.46
43486;BME280;30447;48.742;8.972;2023-08-31T11:12:54;96588.59;;;18.04;65.39
43486;BME280;30447;48.742;8.972;2023-08-31T11:15:25;96573.91;;;18.00;63.68
43486;BME280;30447;48.742;8.972;2023-08-31T11:17:54;96587.78;;;18.03;63.15
43486;BME280;30447;48.742;8.972;2023-08-31T11:20:24;96582.56;;;17.76;63.03
43486;BME280;30447;48.742;8.972;2023-08-31T11:22:54;96582.62;;;18.00;64.29
43486;BME280;30447;48.742;8.972;2023-08-31T11:25:22;96580.81;;;18.28;63.09
43486;BME280;30447;48.742;8.972;2023-08-31T11:27:58;96586.00;;;18.53;62.57
43486;BME280;30447;48.742;8.972;2023-08-31T11:30:28;96568.12;;;18.63;62.99
43486;BME280;30447;48.742;8.972;2023-08-31T11:33:03;96582.06;;;18.17;63.63
43486;BME280;30447;48.742;8.972;2023-08-31T11:35:37;96579.22;;;18.47;63.02
43486;BME280;30447;48.742;8.972;2023-08-31T11:38:08;96580.75;;;18.04;63.63
43486;BME280;30447;48.742;8.972;2023-08-31T11:40:35;96581.88;;;17.96;63.54
43486;BME280;30447;48.742;8.972;2023-08-31T11:43:05;96580.22;;;17.94;63.36
43486;BME280;30447;48.742;8.972;2023-08-31T11:45:35;96586.66;;;17.85;64.12
43486;BME280;30447;48.742;8.972;2023-08-31T11:48:04;96579.94;;;18.02;63.76
43486;BME280;30447;48.742;8.972;2023-08-31T11:50:32;96587.00;;;18.00;65.62
43486;BME280;30447;48.742;8.972;2023-08-31T11:53:00;96587.81;;;18.02;65.12
43486;BME280;30447;48.742;8.972;2023-08-31T11:55:26;96579.78;;;18.32;64.13
43486;BME280;30447;48.742;8.972;2023-08-31T11:57:54;96576.22;;;18.09;64.27
43486;BME280;30447;48.742;8.972;2023-08-31T12:00:23;96585.66;;;18.15;65.32
43486;BME280;30447;48.742;8.972;2023-08-31T12:03:00;96578.56;;;18.17;65.20
43486;BME280;30447;48.742;8.972;2023-08-31T12:05:28;96579.16;;;18.25;66.12
43486;BME280;30447;48.742;8.972;2023-08-31T12:07:57;96577.84;;;18.37;64.38
43486;BME280;30447;48.742;8.972;2023-08-31T12:10:25;96588.84;;;18.23;65.18
43486;BME280;30447;48.742;8.972;2023-08-31T12:12:53;96580.34;;;18.16;65.96
43486;BME280;30447;48.742;8.972;2023-08-31T12:15:21;96580.44;;;18.13;65.56
43486;BME280;30447;48.742;8.972;2023-08-31T12:17:49;96572.41;;;18.42;65.18
43486;BME280;30447;48.742;8.972;2023-08-31T12:20:25;96576.13;;;18.36;65.43
43486;BME280;30447;48.742;8.972;2023-08-31T12:22:55;96572.53;;;18.39;64.84
43486;BME280;30447;48.742;8.972;2023-08-31T12:25:22;96562.69;;;18.45;64.01
43486;BME280;30447;48.742;8.972;2023-08-31T12:27:48;96573.22;;;18.20;64.18
43486;BME280;30447;48.742;8.972;2023-08-31T12:30:16;96569.44;;;18.51;64.20
43486;BME280;30447;48.742;8.972;2023-08-31T12:32:42;96564.88;;;18.32;65.45
43486;BME280;30447;48.742;8.972;2023-08-31T12:35:09;96568.38;;;18.33;64.98
43486;BME280;30447;48.742;8.972;2023-08-31T12:37:37;96558.91;;;18.29;65.65
43486;BME280;30447;48.742;8.972;2023-08-31T12:40:05;96571.09;;;18.30;65.72
43486;BME280;30447;48.742;8.972;2023-08-31T12:42:33;96562.75;;;18.44;65.49
43486;BME280;30447;48.742;8.972;2023-08-31T12:44:59;96566.00;;;18.27;65.38
43486;BME280;30447;48.742;8.972;2023-08-31T12:47:26;96569.34;;;18.54;65.15
43486;BME280;30447;48.742;8.972;2023-08-31T12:49:53;96580.06;;;18.48;65.23
43486;BME280;30447;48.742;8.972;2023-08-31T12:52:19;96572.13;;;18.49;64.68
43486;BME280;30447;48.742;8.972;2023-08-31T12:54:46;96569.88;;;18.16;66.56
43486;BME280;30447;48.742;8.972;2023-08-31T12:57:12;96580.19;;;18.45;65.91
43486;BME280;30447;48.742;8.972;2023-08-31T12:59:39;96584.94;;;18.57;65.88
43486;BME280;30447;48.742;8.972;2023-08-31T13:02:06;96578.28;;;18.48;66.13
43486;BME280;30447;48.742;8.972;2023-08-31T13:04:36;96581.50;;;18.57;66.83
43486;BME280;30447;48.742;8.972;2023-08-31T13:07:03;96586.66;;;18.10;66.37